Time,TemperatureF,DewpointF,PressureIn,WindDirection,WindDirectionDegrees,WindSpeedMPH,WindSpeedGustMPH,Humidity,HourlyPrecipIn,Conditions,Clouds,dailyrainin,SoftwareType,DateUTC
2013-02-17 00:02:00,28.0,12.6,29.80,North,10,4.0,4.0,52,0.00,,,0.00,Wunderground v.1.15,2013-02-17 05:02:00,
2013-02-17 00:06:00,27.9,12.5,29.80,NW,323,4.0,4.0,52,0.00,,,0.00,Wunderground v.1.15,2013-02-17 05:06:00,
2013-02-17 00:11:00,27.9,12.5,29.80,NNW,336,4.0,4.0,52,0.00,,,0.00,Wunderground v.1.15,2013-02-17 05:11:00,
2013-02-17 00:21:00,27.8,11.5,29.80,ENE,59,5.0,9.0,50,0.00,,,0.00,Wunderground v.1.15,2013-02-17 05:21:00,
2013-02-17 00:31:00,27.8,12.4,29.80,WNW,297,3.0,3.0,52,0.00,,,0.00,Wunderground v.1.15,2013-02-17 05:31:00,
2013-02-17 00:41:00,27.7,12.3,29.79,ENE,65,2.0,2.0,52,0.00,,,0.00,Wunderground v.1.15,2013-02-17 05:41:00,
2013-02-17 00:46:00,27.7,11.9,29.79,North,355,2.0,3.0,51,0.00,,,0.00,Wunderground v.1.15,2013-02-17 05:46:00,
2013-02-17 00:56:00,27.6,11.4,29.79,NNW,342,4.0,4.0,50,0.00,,,0.00,Wunderground v.1.15,2013-02-17 05:56:00,
2013-02-17 01:02:00,27.6,11.8,29.78,WNW,296,4.0,4.0,51,0.00,,,0.00,Wunderground v.1.15,2013-02-17 06:02:00,
2013-02-17 01:06:00,27.5,11.3,29.78,NNE,20,4.0,4.0,50,0.00,,,0.00,Wunderground v.1.15,2013-02-17 06:06:00,
2013-02-17 01:16:00,27.5,11.7,29.78,NNW,333,3.0,4.0,51,0.00,,,0.00,Wunderground v.1.15,2013-02-17 06:16:00,
2013-02-17 01:26:00,27.5,11.3,29.78,North,10,3.0,6.0,50,0.00,,,0.00,Wunderground v.1.15,2013-02-17 06:26:00,
2013-02-17 01:32:00,27.5,11.7,29.78,NNW,327,3.0,3.0,51,0.00,,,0.00,Wunderground v.1.15,2013-02-17 06:32:00,
2013-02-17 01:41:00,27.4,11.6,29.78,NNE,23,3.0,3.0,51,0.00,,,0.00,Wunderground v.1.15,2013-02-17 06:41:00,
2013-02-17 01:47:00,27.4,11.2,29.78,NE,40,4.0,4.0,50,0.00,,,0.00,Wunderground v.1.15,2013-02-17 06:47:00,
2013-02-17 01:56:00,27.3,11.5,29.78,NNE,25,3.0,10.0,51,0.00,,,0.00,Wunderground v.1.15,2013-02-17 06:56:00,
2013-02-17 02:01:00,27.3,11.1,29.79,North,5,3.0,3.0,50,0.00,,,0.00,Wunderground v.1.15,2013-02-17 07:01:00,
2013-02-17 02:11:00,27.2,11.4,29.78,NW,323,3.0,4.0,51,0.00,,,0.00,Wunderground v.1.15,2013-02-17 07:11:00,
2013-02-17 02:16:00,27.2,11.0,29.78,North,11,3.0,6.0,50,0.00,,,0.00,Wunderground v.1.15,2013-02-17 07:16:00,
2013-02-17 02:26:00,27.1,11.3,29.78,NNE,27,3.0,8.0,51,0.00,,,0.00,Wunderground v.1.15,2013-02-17 07:26:00,
2013-02-17 02:36:00,27.1,11.3,29.78,North,9,3.0,3.0,51,0.00,,,0.00,Wunderground v.1.15,2013-02-17 07:36:00,
2013-02-17 02:46:00,27.0,10.8,29.78,North,360,3.0,3.0,50,0.00,,,0.00,Wunderground v.1.15,2013-02-17 07:46:00,
2013-02-17 02:56:00,26.9,11.2,29.77,North,360,3.0,3.0,51,0.00,,,0.00,Wunderground v.1.15,2013-02-17 07:56:00,
2013-02-17 03:06:00,26.9,10.3,29.77,North,349,2.0,4.0,49,0.00,,,0.00,Wunderground v.1.15,2013-02-17 08:06:00,
2013-02-17 03:16:00,26.8,9.2,29.77,NNW,346,3.0,6.0,47,0.00,,,0.00,Wunderground v.1.15,2013-02-17 08:16:00,
2013-02-17 03:26:00,26.8,9.2,29.77,North,5,3.0,3.0,47,0.00,,,0.00,Wunderground v.1.15,2013-02-17 08:26:00,
2013-02-17 03:36:00,26.7,7.7,29.77,NNE,26,3.0,8.0,44,0.00,,,0.00,Wunderground v.1.15,2013-02-17 08:36:00,
2013-02-17 03:46:00,26.7,7.2,29.77,WNW,288,4.0,4.0,43,0.00,,,0.00,Wunderground v.1.15,2013-02-17 08:46:00,
2013-02-17 03:56:00,26.7,6.6,29.77,NNE,20,4.0,6.0,42,0.00,,,0.00,Wunderground v.1.15,2013-02-17 08:56:00,
2013-02-17 04:01:00,26.7,6.6,29.78,North,355,3.0,6.0,42,0.00,,,0.00,Wunderground v.1.15,2013-02-17 09:01:00,
2013-02-17 04:11:00,26.7,7.2,29.78,WNW,294,3.0,3.0,43,0.00,,,0.00,Wunderground v.1.15,2013-02-17 09:11:00,
2013-02-17 04:20:00,26.5,6.5,29.77,NNE,30,1.0,4.0,42,0.00,,,0.00,Wunderground v.1.15,2013-02-17 09:20:00,
2013-02-17 04:31:00,26.5,7.5,29.78,WNW,293,2.0,2.0,44,0.00,,,0.00,Wunderground v.1.15,2013-02-17 09:31:00,
2013-02-17 04:40:00,26.5,7.0,29.78,WNW,294,1.0,3.0,43,0.00,,,0.00,Wunderground v.1.15,2013-02-17 09:40:00,
2013-02-17 04:46:00,26.4,7.4,29.78,NNW,339,1.0,3.0,44,0.00,,,0.00,Wunderground v.1.15,2013-02-17 09:46:00,
2013-02-17 04:56:00,26.3,7.3,29.78,NNW,338,1.0,2.0,44,0.00,,,0.00,Wunderground v.1.15,2013-02-17 09:56:00,
2013-02-17 05:01:00,26.2,7.2,29.78,WNW,294,1.0,1.0,44,0.00,,,0.00,Wunderground v.1.15,2013-02-17 10:01:00,
2013-02-17 05:11:00,26.1,8.1,29.78,WNW,294,1.0,2.0,46,0.00,,,0.00,Wunderground v.1.15,2013-02-17 10:11:00,
2013-02-17 05:16:00,26.0,7.0,29.78,North,355,2.0,4.0,44,0.00,,,0.00,Wunderground v.1.15,2013-02-17 10:16:00,
2013-02-17 05:25:00,25.8,6.9,29.78,NNE,32,2.0,2.0,44,0.00,,,0.00,Wunderground v.1.15,2013-02-17 10:25:00,
2013-02-17 05:31:00,25.7,6.8,29.78,NW,317,1.0,1.0,44,0.00,,,0.00,Wunderground v.1.15,2013-02-17 10:31:00,
2013-02-17 05:40:00,25.6,8.1,29.78,WNW,296,1.0,1.0,47,0.00,,,0.00,Wunderground v.1.15,2013-02-17 10:40:00,
2013-02-17 05:46:00,25.5,8.0,29.78,WNW,293,0.0,1.0,47,0.00,,,0.00,Wunderground v.1.15,2013-02-17 10:46:00,
2013-02-17 05:56:00,25.4,7.0,29.78,NNE,26,3.0,10.0,45,0.00,,,0.00,Wunderground v.1.15,2013-02-17 10:56:00,
2013-02-17 06:01:00,25.3,7.9,29.78,WNW,292,3.0,3.0,47,0.00,,,0.00,Wunderground v.1.15,2013-02-17 11:01:00,
2013-02-17 06:11:00,25.2,7.8,29.78,WNW,300,2.0,2.0,47,0.00,,,0.00,Wunderground v.1.15,2013-02-17 11:11:00,
2013-02-17 06:16:00,25.0,7.6,29.78,West,274,2.0,2.0,47,0.00,,,0.00,Wunderground v.1.15,2013-02-17 11:16:00,
2013-02-17 06:25:00,24.9,7.5,29.78,WNW,291,1.0,2.0,47,0.00,,,0.00,Wunderground v.1.15,2013-02-17 11:25:00,
2013-02-17 06:31:00,24.8,7.9,29.78,North,5,1.0,7.0,48,0.00,,,0.00,Wunderground v.1.15,2013-02-17 11:31:00,
2013-02-17 06:40:00,24.7,7.8,29.78,West,280,3.0,3.0,48,0.00,,,0.00,Wunderground v.1.15,2013-02-17 11:40:00,
2013-02-17 06:46:00,24.7,7.3,29.78,WNW,288,1.0,3.0,47,0.00,,,0.00,Wunderground v.1.15,2013-02-17 11:46:00,
2013-02-17 06:55:00,24.5,7.1,29.78,West,281,1.0,3.0,47,0.00,,,0.00,Wunderground v.1.15,2013-02-17 11:55:00,
2013-02-17 07:01:00,24.4,7.0,29.78,WNW,286,2.0,2.0,47,0.00,,,0.00,Wunderground v.1.15,2013-02-17 12:01:00,
2013-02-17 07:10:00,24.3,6.9,29.78,NW,306,1.0,1.0,47,0.00,,,0.00,Wunderground v.1.15,2013-02-17 12:10:00,
2013-02-17 07:16:00,24.2,6.8,29.78,WNW,286,1.0,1.0,47,0.00,,,0.00,Wunderground v.1.15,2013-02-17 12:16:00,
2013-02-17 07:26:00,24.2,6.8,29.78,NW,309,2.0,2.0,47,0.00,,,0.00,Wunderground v.1.15,2013-02-17 12:26:00,
2013-02-17 07:35:00,24.2,7.3,29.78,WNW,289,2.0,2.0,48,0.00,,,0.00,Wunderground v.1.15,2013-02-17 12:35:00,
2013-02-17 07:40:00,24.2,7.3,29.78,WNW,289,1.0,2.0,48,0.00,,,0.00,Wunderground v.1.15,2013-02-17 12:40:00,
2013-02-17 07:50:00,24.2,6.8,29.79,West,281,1.0,2.0,47,0.00,,,0.00,Wunderground v.1.15,2013-02-17 12:50:00,
2013-02-17 08:01:00,24.4,7.0,29.80,NNW,327,2.0,3.0,47,0.00,,,0.00,Wunderground v.1.15,2013-02-17 13:01:00,
2013-02-17 08:10:00,24.4,6.1,29.79,NNW,344,4.0,5.0,45,0.00,,,0.00,Wunderground v.1.15,2013-02-17 13:10:00,
2013-02-17 08:20:00,24.7,6.8,29.80,WNW,298,3.0,3.0,46,0.00,,,0.00,Wunderground v.1.15,2013-02-17 13:20:00,
2013-02-17 08:31:00,24.9,6.5,29.80,NNW,339,2.0,3.0,45,0.00,,,0.00,Wunderground v.1.15,2013-02-17 13:31:00,
2013-02-17 08:40:00,24.8,6.4,29.80,North,350,3.0,3.0,45,0.00,,,0.00,Wunderground v.1.15,2013-02-17 13:40:00,
2013-02-17 08:46:00,25.0,6.1,29.80,WNW,294,3.0,3.0,44,0.00,,,0.00,Wunderground v.1.15,2013-02-17 13:46:00,
2013-02-17 08:55:00,25.0,6.1,29.80,NNW,329,4.0,4.0,44,0.00,,,0.00,Wunderground v.1.15,2013-02-17 13:55:00,
2013-02-17 09:01:00,25.4,7.0,29.80,NW,317,3.0,3.0,45,0.00,,,0.00,Wunderground v.1.15,2013-02-17 14:01:00,
2013-02-17 09:10:00,25.5,6.1,29.80,West,277,3.0,5.0,43,0.00,,,0.00,Wunderground v.1.15,2013-02-17 14:10:00,
2013-02-17 09:16:00,25.4,6.5,29.80,NNW,341,3.0,5.0,44,0.00,,,0.00,Wunderground v.1.15,2013-02-17 14:16:00,
2013-02-17 09:25:00,25.7,6.8,29.80,WNW,294,4.0,6.0,44,0.00,,,0.00,Wunderground v.1.15,2013-02-17 14:25:00,
2013-02-17 09:36:00,26.3,7.3,29.80,WNW,289,2.0,2.0,44,0.00,,,0.00,Wunderground v.1.15,2013-02-17 14:36:00,
2013-02-17 09:47:00,26.4,5.8,29.80,NW,312,3.0,3.0,41,0.00,,,0.00,Wunderground v.1.15,2013-02-17 14:47:00,
2013-02-17 09:56:00,26.7,6.1,29.80,NNE,13,4.0,7.0,41,0.00,,,0.00,Wunderground v.1.15,2013-02-17 14:56:00,
2013-02-17 10:06:00,27.2,6.0,29.80,West,275,3.0,3.0,40,0.00,,,0.00,Wunderground v.1.15,2013-02-17 15:06:00,
2013-02-17 10:21:00,27.1,5.9,29.80,NNW,334,5.0,5.0,40,0.00,,,0.00,Wunderground v.1.15,2013-02-17 15:21:00,
2013-02-17 10:32:00,27.5,6.8,29.80,NNE,32,4.0,5.0,41,0.00,,,0.00,Wunderground v.1.15,2013-02-17 15:32:00,
2013-02-17 10:41:00,27.7,6.5,29.80,WNW,283,4.0,4.0,40,0.00,,,0.00,Wunderground v.1.15,2013-02-17 15:41:00,
2013-02-17 10:47:00,28.2,6.9,29.81,NNW,328,3.0,4.0,40,0.00,,,0.00,Wunderground v.1.15,2013-02-17 15:47:00,
2013-02-17 10:56:00,28.7,7.4,29.81,West,279,4.0,4.0,40,0.00,,,0.00,Wunderground v.1.15,2013-02-17 15:56:00,
2013-02-17 11:01:00,29.0,7.7,29.81,NNW,334,4.0,4.0,40,0.00,,,0.00,Wunderground v.1.15,2013-02-17 16:01:00,
2013-02-17 11:11:00,29.0,5.9,29.80,West,277,5.0,5.0,37,0.00,,,0.00,Wunderground v.1.15,2013-02-17 16:11:00,
2013-02-17 11:17:00,29.2,7.3,29.80,West,271,4.0,5.0,39,0.00,,,0.00,Wunderground v.1.15,2013-02-17 16:17:00,
2013-02-17 11:26:00,29.6,6.5,29.80,NNW,344,4.0,10.0,37,0.00,,,0.00,Wunderground v.1.15,2013-02-17 16:26:00,
2013-02-17 11:32:00,29.4,6.3,29.80,WNW,294,5.0,5.0,37,0.00,,,0.00,Wunderground v.1.15,2013-02-17 16:32:00,
2013-02-17 11:41:00,29.2,6.7,29.80,West,271,4.0,6.0,38,0.00,,,0.00,Wunderground v.1.15,2013-02-17 16:41:00,
2013-02-17 11:46:00,29.7,8.3,29.80,SW,229,4.0,8.0,40,0.00,,,0.00,Wunderground v.1.15,2013-02-17 16:46:00,
2013-02-17 11:56:00,29.9,6.1,29.80,NW,323,5.0,5.0,36,0.00,,,0.00,Wunderground v.1.15,2013-02-17 16:56:00,
2013-02-17 12:01:00,29.5,7.5,29.80,West,275,5.0,5.0,39,0.00,,,0.00,Wunderground v.1.15,2013-02-17 17:01:00,
2013-02-17 12:11:00,29.8,7.2,29.80,NW,315,4.0,4.0,38,0.00,,,0.00,Wunderground v.1.15,2013-02-17 17:11:00,
2013-02-17 12:16:00,30.5,8.4,29.80,West,265,4.0,4.0,39,0.00,,,0.00,Wunderground v.1.15,2013-02-17 17:16:00,
2013-02-17 12:26:00,30.5,6.7,29.80,West,277,5.0,5.0,36,0.00,,,0.00,Wunderground v.1.15,2013-02-17 17:26:00,
2013-02-17 12:31:00,29.9,6.1,29.80,WNW,299,5.0,5.0,36,0.00,,,0.00,Wunderground v.1.15,2013-02-17 17:31:00,
2013-02-17 12:41:00,29.4,5.7,29.80,NW,319,5.0,6.0,36,0.00,,,0.00,Wunderground v.1.15,2013-02-17 17:41:00,
2013-02-17 12:46:00,28.9,5.2,29.80,West,277,5.0,6.0,36,0.00,,,0.00,Wunderground v.1.15,2013-02-17 17:46:00,
2013-02-17 12:56:00,28.1,5.1,29.80,West,271,5.0,10.0,37,0.00,,,0.00,Wunderground v.1.15,2013-02-17 17:56:00,
2013-02-17 13:01:00,28.0,6.2,29.80,North,9,4.0,5.0,39,0.00,,,0.00,Wunderground v.1.15,2013-02-17 18:01:00,
2013-02-17 13:10:00,28.2,5.8,29.81,West,275,4.0,5.0,38,0.00,,,0.00,Wunderground v.1.15,2013-02-17 18:10:00,
2013-02-17 13:16:00,28.1,5.7,29.81,West,279,5.0,6.0,38,0.00,,,0.00,Wunderground v.1.15,2013-02-17 18:16:00,
2013-02-17 13:25:00,28.0,5.0,29.81,WNW,303,6.0,6.0,37,0.00,,,0.00,Wunderground v.1.15,2013-02-17 18:25:00,
2013-02-17 13:31:00,27.8,4.3,29.81,NNW,329,6.0,6.0,36,0.00,,,0.00,Wunderground v.1.15,2013-02-17 18:31:00,
2013-02-17 13:40:00,28.5,4.9,29.82,NNE,18,4.0,6.0,36,0.00,,,0.00,Wunderground v.1.15,2013-02-17 18:40:00,
2013-02-17 13:50:00,28.0,5.6,29.82,NNW,331,5.0,5.0,38,0.00,,,0.00,Wunderground v.1.15,2013-02-17 18:50:00,
2013-02-17 14:05:00,29.7,7.7,29.82,West,273,3.0,7.0,39,0.00,,,0.00,Wunderground v.1.15,2013-02-17 19:05:00,
2013-02-17 14:20:00,29.6,5.3,29.81,West,275,5.0,6.0,35,0.00,,,0.00,Wunderground v.1.15,2013-02-17 19:20:00,
2013-02-17 14:25:00,29.1,4.8,29.81,West,269,6.0,6.0,35,0.00,,,0.00,Wunderground v.1.15,2013-02-17 19:25:00,
2013-02-17 14:36:00,28.3,5.9,29.82,West,275,5.0,5.0,38,0.00,,,0.00,Wunderground v.1.15,2013-02-17 19:36:00,
2013-02-17 14:47:00,28.5,7.8,29.82,WNW,287,4.0,4.0,41,0.00,,,0.00,Wunderground v.1.15,2013-02-17 19:47:00,
2013-02-17 14:56:00,28.6,6.7,29.82,West,279,4.0,4.0,39,0.00,,,0.00,Wunderground v.1.15,2013-02-17 19:56:00,
2013-02-17 15:02:00,28.2,6.9,29.83,NNE,30,4.0,7.0,40,0.00,,,0.00,Wunderground v.1.15,2013-02-17 20:02:00,
2013-02-17 15:11:00,27.7,7.0,29.83,NNE,12,6.0,6.0,41,0.00,,,0.00,Wunderground v.1.15,2013-02-17 20:11:00,
2013-02-17 15:21:00,28.1,5.7,29.83,West,279,4.0,6.0,38,0.00,,,0.00,Wunderground v.1.15,2013-02-17 20:21:00,
2013-02-17 15:26:00,28.2,6.4,29.83,NNW,332,5.0,6.0,39,0.00,,,0.00,Wunderground v.1.15,2013-02-17 20:26:00,
2013-02-17 15:36:00,28.0,6.8,29.83,WNW,292,5.0,5.0,40,0.00,,,0.00,Wunderground v.1.15,2013-02-17 20:36:00,
2013-02-17 15:41:00,27.9,7.2,29.83,NNW,342,4.0,5.0,41,0.00,,,0.00,Wunderground v.1.15,2013-02-17 20:41:00,
2013-02-17 15:47:00,27.6,8.0,29.84,NNW,348,4.0,4.0,43,0.00,,,0.00,Wunderground v.1.15,2013-02-17 20:47:00,
2013-02-17 15:56:00,27.5,7.9,29.84,NNW,332,4.0,6.0,43,0.00,,,0.00,Wunderground v.1.15,2013-02-17 20:56:00,
2013-02-17 16:06:00,27.1,8.0,29.84,West,276,5.0,5.0,44,0.00,,,0.00,Wunderground v.1.15,2013-02-17 21:06:00,
2013-02-17 16:17:00,27.1,8.0,29.85,WNW,286,5.0,6.0,44,0.00,,,0.00,Wunderground v.1.15,2013-02-17 21:17:00,
2013-02-17 16:26:00,27.1,6.5,29.85,WNW,286,4.0,4.0,41,0.00,,,0.00,Wunderground v.1.15,2013-02-17 21:26:00,
2013-02-17 16:32:00,26.9,5.8,29.86,West,276,4.0,4.0,40,0.00,,,0.00,Wunderground v.1.15,2013-02-17 21:32:00,
2013-02-17 16:41:00,26.3,9.2,29.87,NNW,336,5.0,7.0,48,0.00,,,0.00,Wunderground v.1.15,2013-02-17 21:41:00,
2013-02-17 16:51:00,25.4,9.8,29.87,NW,317,4.0,4.0,51,0.00,,,0.00,Wunderground v.1.15,2013-02-17 21:51:00,
2013-02-17 17:06:00,25.0,9.0,29.88,West,272,4.0,4.0,50,0.00,,,0.00,Wunderground v.1.15,2013-02-17 22:06:00,
2013-02-17 17:21:00,24.9,8.0,29.89,NW,312,3.0,3.0,48,0.00,,,0.00,Wunderground v.1.15,2013-02-17 22:21:00,
2013-02-17 17:26:00,24.8,9.6,29.90,NNW,327,4.0,4.0,52,0.00,,,0.00,Wunderground v.1.15,2013-02-17 22:26:00,
2013-02-17 17:36:00,24.5,10.2,29.90,NNW,346,3.0,3.0,54,0.00,,,0.00,Wunderground v.1.15,2013-02-17 22:36:00,
2013-02-17 17:41:00,24.4,10.5,29.90,West,277,3.0,3.0,55,0.00,,,0.00,Wunderground v.1.15,2013-02-17 22:41:00,
2013-02-17 17:51:00,24.1,9.8,29.91,WNW,302,4.0,4.0,54,0.00,,,0.00,Wunderground v.1.15,2013-02-17 22:51:00,
2013-02-17 17:56:00,23.9,10.5,29.92,North,355,4.0,4.0,56,0.00,,,0.00,Wunderground v.1.15,2013-02-17 22:56:00,
2013-02-17 18:06:00,23.6,10.2,29.92,WNW,289,2.0,2.0,56,0.00,,,0.00,Wunderground v.1.15,2013-02-17 23:06:00,
2013-02-17 18:17:00,23.6,8.9,29.93,WNW,290,2.0,2.0,53,0.00,,,0.00,Wunderground v.1.15,2013-02-17 23:17:00,
2013-02-17 18:26:00,23.6,7.2,29.93,WNW,284,3.0,3.0,49,0.00,,,0.00,Wunderground v.1.15,2013-02-17 23:26:00,
2013-02-17 18:36:00,23.4,5.6,29.94,WNW,292,5.0,5.0,46,0.00,,,0.00,Wunderground v.1.15,2013-02-17 23:36:00,
2013-02-17 18:51:00,23.0,4.3,29.94,WNW,282,3.0,3.0,44,0.00,,,0.00,Wunderground v.1.15,2013-02-17 23:51:00,
2013-02-17 19:02:00,22.7,4.0,29.95,West,268,3.0,3.0,44,0.00,,,0.00,Wunderground v.1.15,2013-02-18 00:02:00,
2013-02-17 19:11:00,22.5,2.8,29.96,West,273,4.0,4.0,42,0.00,,,0.00,Wunderground v.1.15,2013-02-18 00:11:00,
2013-02-17 19:21:00,22.2,3.1,29.96,North,355,3.0,5.0,43,0.00,,,0.00,Wunderground v.1.15,2013-02-18 00:21:00,
2013-02-17 19:36:00,21.8,2.2,29.98,WNW,299,3.0,3.0,42,0.00,,,0.00,Wunderground v.1.15,2013-02-18 00:36:00,
2013-02-17 19:51:00,21.5,3.4,29.98,West,275,4.0,6.0,45,0.00,,,0.00,Wunderground v.1.15,2013-02-18 00:51:00,
2013-02-17 20:06:00,21.1,3.0,29.99,West,276,3.0,3.0,45,0.00,,,0.00,Wunderground v.1.15,2013-02-18 01:06:00,
2013-02-17 20:21:00,20.7,3.2,30.00,West,275,3.0,3.0,46,0.00,,,0.00,Wunderground v.1.15,2013-02-18 01:21:00,
2013-02-17 20:26:00,20.6,3.1,30.00,West,265,4.0,4.0,46,0.00,,,0.00,Wunderground v.1.15,2013-02-18 01:26:00,
2013-02-17 20:36:00,20.4,3.3,30.01,NNW,327,4.0,4.0,47,0.00,,,0.00,Wunderground v.1.15,2013-02-18 01:36:00,
2013-02-17 20:46:00,20.0,2.0,30.02,West,281,5.0,5.0,45,0.00,,,0.00,Wunderground v.1.15,2013-02-18 01:46:00,
2013-02-17 20:56:00,19.7,1.8,30.03,West,273,4.0,7.0,45,0.00,,,0.00,Wunderground v.1.15,2013-02-18 01:56:00,
2013-02-17 21:01:00,19.4,1.0,30.04,NNW,333,5.0,5.0,44,0.00,,,0.00,Wunderground v.1.15,2013-02-18 02:01:00,
2013-02-17 21:11:00,18.9,1.0,30.04,SSW,202,5.0,6.0,45,0.00,,,0.00,Wunderground v.1.15,2013-02-18 02:11:00,
2013-02-17 21:16:00,18.8,1.4,30.04,West,271,5.0,6.0,46,0.00,,,0.00,Wunderground v.1.15,2013-02-18 02:16:00,
2013-02-17 21:26:00,18.6,1.7,30.04,WNW,289,4.0,5.0,47,0.00,,,0.00,Wunderground v.1.15,2013-02-18 02:26:00,
2013-02-17 21:31:00,18.5,1.6,30.05,West,275,3.0,3.0,47,0.00,,,0.00,Wunderground v.1.15,2013-02-18 02:31:00,
2013-02-17 21:41:00,18.5,2.0,30.05,West,279,4.0,4.0,48,0.00,,,0.00,Wunderground v.1.15,2013-02-18 02:41:00,
2013-02-17 21:46:00,18.4,2.0,30.05,West,273,4.0,4.0,48,0.00,,,0.00,Wunderground v.1.15,2013-02-18 02:46:00,
2013-02-17 21:56:00,18.4,2.4,30.05,West,277,3.0,3.0,49,0.00,,,0.00,Wunderground v.1.15,2013-02-18 02:56:00,
2013-02-17 22:01:00,18.4,2.4,30.05,West,279,4.0,4.0,49,0.00,,,0.00,Wunderground v.1.15,2013-02-18 03:01:00,
2013-02-17 22:10:00,18.4,2.4,30.06,NNE,13,4.0,4.0,49,0.00,,,0.00,Wunderground v.1.15,2013-02-18 03:10:00,
2013-02-17 22:21:00,18.4,2.4,30.06,WNW,288,3.0,3.0,49,0.00,,,0.00,Wunderground v.1.15,2013-02-18 03:21:00,
2013-02-17 22:26:00,18.3,2.3,30.06,WNW,287,3.0,4.0,49,0.00,,,0.00,Wunderground v.1.15,2013-02-18 03:26:00,
2013-02-17 22:35:00,18.4,2.8,30.06,West,271,4.0,6.0,50,0.00,,,0.00,Wunderground v.1.15,2013-02-18 03:35:00,
2013-02-17 22:41:00,18.4,3.3,30.06,NNW,337,3.0,6.0,51,0.00,,,0.00,Wunderground v.1.15,2013-02-18 03:41:00,
2013-02-17 22:46:00,18.4,2.4,30.06,West,279,3.0,4.0,49,0.00,,,0.00,Wunderground v.1.15,2013-02-18 03:46:00,
2013-02-17 22:55:00,18.4,2.8,30.07,West,275,3.0,5.0,50,0.00,,,0.00,Wunderground v.1.15,2013-02-18 03:55:00,
2013-02-17 23:01:00,18.4,2.4,30.07,North,5,4.0,4.0,49,0.00,,,0.00,Wunderground v.1.15,2013-02-18 04:01:00,
2013-02-17 23:11:00,18.4,2.8,30.07,NW,304,4.0,4.0,50,0.00,,,0.00,Wunderground v.1.15,2013-02-18 04:11:00,
2013-02-17 23:16:00,18.3,2.7,30.08,West,265,3.0,4.0,50,0.00,,,0.00,Wunderground v.1.15,2013-02-18 04:16:00,
2013-02-17 23:26:00,18.3,2.7,30.08,West,263,3.0,6.0,50,0.00,,,0.00,Wunderground v.1.15,2013-02-18 04:26:00,
2013-02-17 23:31:00,18.3,2.7,30.08,WNW,303,4.0,5.0,50,0.00,,,0.00,Wunderground v.1.15,2013-02-18 04:31:00,
2013-02-17 23:40:00,18.3,2.7,30.08,North,5,3.0,4.0,50,0.00,,,0.00,Wunderground v.1.15,2013-02-18 04:40:00,
2013-02-17 23:46:00,18.2,2.6,30.08,WNW,283,4.0,4.0,50,0.00,,,0.00,Wunderground v.1.15,2013-02-18 04:46:00,
2013-02-17 23:55:00,18.2,2.6,30.09,West,278,4.0,4.0,50,0.00,,,0.00,Wunderground v.1.15,2013-02-18 04:55:00,